Time;durP1;ratioP1;P1;durP2;ratioP2;P2;SDS_P1;SDS_P2;PMS_P1;PMS_P2;Temp;Humidity;BMP_temperature;BMP_pressure;BME280_temperature;BME280_humidity;BME280_pressure;Samples;Min_cycle;Max_cycle;Signal;HPM_P1;HPM_P2
2021/04/23 00:00:35;;;;;;;14.93;6.40;;;;;;;2.66;100.00;96727.13;1032215;28;20592;-60
2021/04/23 00:01:07;;;;;;;13.77;5.68;;;;;;;2.72;100.00;96734.56;1032260;28;20022;-61
2021/04/23 00:01:38;;;;;;;15.57;6.25;;;;;;;2.71;100.00;96728.47;1032282;28;20034;-61
2021/04/23 00:02:09;;;;;;;15.70;6.07;;;;;;;2.70;100.00;96729.44;1036248;28;20034;-61
2021/04/23 00:02:40;;;;;;;14.75;6.40;;;;;;;2.71;100.00;96731.09;1032062;28;20053;-60
2021/04/23 00:03:22;;;;;;;20.13;6.38;;;;;;;2.72;100.00;96724.91;1036328;28;20033;-60
2021/04/23 00:03:55;;;;;;;11.45;6.22;;;;;;;2.69;100.00;96732.97;1036081;28;20030;-61
2021/04/23 00:04:26;;;;;;;17.77;5.90;;;;;;;2.71;100.00;96731.09;1032203;28;20029;-61
2021/04/23 00:04:56;;;;;;;15.57;6.10;;;;;;;2.73;100.00;96733.59;1032075;28;20022;-61
2021/04/23 00:05:27;;;;;;;11.55;5.65;;;;;;;2.71;100.00;96731.09;1032219;28;20022;-60
2021/04/23 00:06:10;;;;;;;15.38;5.75;;;;;;;2.70;100.00;96731.19;1036285;28;20018;-60
2021/04/23 00:06:53;;;;;;;15.13;6.15;;;;;;;2.70;100.00;96729.44;1036272;28;20030;-61
2021/04/23 00:07:24;;;;;;;12.82;6.05;;;;;;;2.69;100.00;96734.78;1036395;28;20025;-61
2021/04/23 00:07:55;;;;;;;15.38;6.05;;;;;;;2.66;100.00;96727.94;1036178;28;20488;-60
2021/04/23 00:08:26;;;;;;;15.45;6.47;;;;;;;2.67;100.00;96734.06;1036193;28;20025;-61
2021/04/23 00:08:57;;;;;;;12.50;5.72;;;;;;;2.64;100.00;96729.84;1036338;28;20029;-60
2021/04/23 00:09:30;;;;;;;11.07;5.68;;;;;;;2.64;100.00;96725.44;1036287;28;20129;-61
2021/04/23 00:10:03;;;;;;;16.67;6.10;;;;;;;2.58;100.00;96725.03;1040382;28;20021;-62
2021/04/23 00:10:33;;;;;;;14.77;6.35;;;;;;;2.61;100.00;96730.91;1032152;28;20080;-61
2021/04/23 00:11:06;;;;;;;10.80;5.68;;;;;;;2.60;100.00;96729.22;1036291;28;20064;-61
2021/04/23 00:11:39;;;;;;;9.90;5.22;;;;;;;2.60;100.00;96733.63;1040245;28;20525;-61
2021/04/23 00:12:13;;;;;;;15.20;5.93;;;;;;;2.57;100.00;96729.44;1036184;28;20113;-60
2021/04/23 00:12:44;;;;;;;16.30;6.90;;;;;;;2.54;100.00;96724.41;1028178;28;20022;-61
2021/04/23 00:13:15;;;;;;;17.58;6.18;;;;;;;2.53;100.00;96732.38;1036179;28;20554;-60
2021/04/23 00:13:46;;;;;;;12.00;6.03;;;;;;;2.52;100.00;96730.69;1036065;28;20022;-62
2021/04/23 00:14:20;;;;;;;13.13;5.93;;;;;;;2.52;100.00;96728.91;1040196;28;20028;-61
2021/04/23 00:14:51;;;;;;;13.50;5.30;;;;;;;2.52;100.00;96723.66;1036211;28;20025;-61
2021/04/23 00:15:23;;;;;;;15.65;6.28;;;;;;;2.51;100.00;96719.38;1032147;28;20506;-60
2021/04/23 00:15:54;;;;;;;16.13;5.93;;;;;;;2.51;100.00;96729.88;1036177;28;20018;-61
2021/04/23 00:16:24;;;;;;;15.23;6.15;;;;;;;2.51;100.00;96731.63;1036201;28;20022;-61
2021/04/23 00:16:55;;;;;;;17.10;6.53;;;;;;;2.47;100.00;96722.31;1036168;28;20116;-61
2021/04/23 00:17:26;;;;;;;12.45;5.40;;;;;;;2.43;100.00;96724.31;1044249;28;20017;-60
2021/04/23 00:17:57;;;;;;;14.35;5.80;;;;;;;2.41;100.00;96732.28;1035819;28;20061;-60
2021/04/23 00:18:28;;;;;;;16.33;6.47;;;;;;;2.39;100.00;96725.47;1036172;28;20488;-61
2021/04/23 00:18:59;;;;;;;15.52;5.95;;;;;;;2.37;100.00;96715.09;1036030;28;20068;-61
2021/04/23 00:19:30;;;;;;;12.68;5.60;;;;;;;2.41;100.00;96723.59;1036057;28;20029;-61
2021/04/23 00:20:00;;;;;;;15.10;6.25;;;;;;;2.41;100.00;96723.59;1040243;28;20463;-61
2021/04/23 00:20:31;;;;;;;14.95;6.63;;;;;;;2.37;100.00;96716.88;1032121;28;20050;-61
2021/04/23 00:21:02;;;;;;;19.60;7.18;;;;;;;2.42;100.00;96720.00;1032078;28;20048;-61
2021/04/23 00:21:33;;;;;;;13.27;5.97;;;;;;;2.42;100.00;96718.25;1036080;28;20132;-61
2021/04/23 00:22:04;;;;;;;13.75;5.57;;;;;;;2.42;100.00;96725.25;1036184;28;20045;-61
2021/04/23 00:22:35;;;;;;;13.50;5.53;;;;;;;2.41;100.00;96719.19;1040217;28;20461;-61
2021/04/23 00:23:06;;;;;;;14.27;6.20;;;;;;;2.40;100.00;96712.28;1036195;28;20051;-60
2021/04/23 00:23:37;;;;;;;13.75;5.90;;;;;;;2.38;100.00;96719.38;1044052;28;20522;-60
2021/04/23 00:24:09;;;;;;;16.75;6.60;;;;;;;2.38;100.00;96711.50;1032161;28;20034;-62
2021/04/23 00:24:40;;;;;;;14.20;6.20;;;;;;;2.37;100.00;96712.47;1032063;28;20029;-61
2021/04/23 00:25:12;;;;;;;15.68;5.75;;;;;;;2.38;100.00;96719.38;1040265;28;20512;-61
2021/04/23 00:25:43;;;;;;;16.02;6.97;;;;;;;2.36;100.00;96715.19;1031979;28;20030;-61
2021/04/23 00:26:14;;;;;;;14.00;5.57;;;;;;;2.34;100.00;96722.34;1032104;28;20049;-62
2021/04/23 00:26:45;;;;;;;13.55;6.55;;;;;;;2.33;100.00;96718.84;1028061;28;20030;-61
2021/04/23 00:27:16;;;;;;;13.80;6.32;;;;;;;2.29;100.00;96712.16;1032196;28;20019;-62
2021/04/23 00:27:46;;;;;;;18.77;5.97;;;;;;;2.28;100.00;96720.94;1031878;28;20076;-60
2021/04/23 00:28:17;;;;;;;14.75;5.43;;;;;;;2.26;100.00;96721.09;1040416;28;20017;-61
2021/04/23 00:28:48;;;;;;;13.88;6.22;;;;;;;2.24;100.00;96724.75;1032082;28;20439;-61
2021/04/23 00:29:19;;;;;;;14.40;6.30;;;;;;;2.22;100.00;96724.00;1036178;28;20109;-61
2021/04/23 00:29:50;;;;;;;11.20;5.70;;;;;;;2.24;100.00;96727.34;1031958;28;20026;-61
2021/04/23 00:30:31;;;;;;;15.40;5.57;;;;;;;2.25;100.00;96723.81;1036228;28;20234;-59
2021/04/23 00:31:03;;;;;;;12.52;5.88;;;;;;;2.23;100.00;96720.44;1036223;28;20022;-61
2021/04/23 00:31:35;;;;;;;10.20;5.40;;;;;;;2.25;100.00;96719.41;1035717;28;20109;-61
2021/04/23 00:32:06;;;;;;;12.77;5.82;;;;;;;2.26;100.00;96722.84;1036084;28;20523;-62
2021/04/23 00:33:19;;;;;;;15.00;6.10;;;;;;;2.26;100.00;96725.47;1036242;28;20050;-61
2021/04/23 00:33:50;;;;;;;13.05;5.82;;;;;;;2.24;100.00;96724.75;1039887;28;20022;-61
2021/04/23 00:34:20;;;;;;;15.00;6.65;;;;;;;2.21;100.00;96722.31;1032076;28;20022;-61
2021/04/23 00:34:51;;;;;;;16.15;6.78;;;;;;;2.19;100.00;96721.59;1040236;28;20021;-61
2021/04/23 00:35:24;;;;;;;16.42;6.00;;;;;;;2.18;100.00;96725.19;1036176;28;20094;-58
2021/04/23 00:35:55;;;;;;;11.45;5.80;;;;;;;2.17;100.00;96726.09;1040111;28;20576;-61
2021/04/23 00:36:26;;;;;;;12.38;5.93;;;;;;;2.16;100.00;96729.66;1040194;28;20116;-60
2021/04/23 00:36:57;;;;;;;13.02;5.88;;;;;;;2.13;100.00;96725.47;1032147;28;20068;-63
2021/04/23 00:37:28;;;;;;;15.50;5.55;;;;;;;2.12;100.00;96717.72;1032182;28;20026;-61
2021/04/23 00:37:59;;;;;;;16.15;5.55;;;;;;;2.08;100.00;96722.34;1035977;28;20487;-61
2021/04/23 00:38:30;;;;;;;15.40;5.65;;;;;;;2.08;100.00;96723.16;1032132;28;20555;-61
2021/04/23 00:39:01;;;;;;;14.73;6.10;;;;;;;2.08;100.00;96719.72;1035980;28;20018;-62
2021/04/23 00:39:34;;;;;;;13.85;6.43;;;;;;;2.09;100.00;96718.78;1032052;28;20444;-61
2021/04/23 00:40:06;;;;;;;14.25;5.30;;;;;;;2.11;100.00;96721.28;1040131;28;20022;-60
2021/04/23 00:40:44;;;;;;;16.08;5.53;;;;;;;2.10;100.00;96717.00;1040237;28;20453;-60
2021/04/23 00:41:17;;;;;;;11.40;5.60;;;;;;;2.06;100.00;96717.19;1036166;28;20022;-61
2021/04/23 00:41:48;;;;;;;12.85;5.72;;;;;;;2.04;100.00;96726.94;1032038;28;20026;-61
2021/04/23 00:42:19;;;;;;;13.05;6.07;;;;;;;2.04;100.00;96726.13;1031954;28;20145;-61
2021/04/23 00:42:50;;;;;;;10.82;5.13;;;;;;;2.05;100.00;96715.50;1036049;28;20025;-60
2021/04/23 00:43:22;;;;;;;13.00;6.00;;;;;;;2.06;100.00;96719.81;1040239;28;20017;-61
2021/04/23 00:44:00;;;;;;;14.35;5.85;;;;;;;2.06;100.00;96721.59;1031768;28;20049;-61
2021/04/23 00:44:31;;;;;;;13.18;5.57;;;;;;;2.06;100.00;96724.22;1036026;28;20022;-60
2021/04/23 00:45:02;;;;;;;11.90;5.35;;;;;;;2.04;100.00;96724.31;1044328;28;20021;-61
2021/04/23 00:45:33;;;;;;;14.13;6.00;;;;;;;2.03;100.00;96720.00;1040261;28;20021;-60
2021/04/23 00:46:04;;;;;;;12.25;5.22;;;;;;;2.03;100.00;96719.19;1032091;28;20022;-60
2021/04/23 00:46:37;;;;;;;12.65;5.38;;;;;;;2.03;100.00;96725.25;1035981;28;20026;-60
2021/04/23 00:47:08;;;;;;;13.27;5.68;;;;;;;2.02;100.00;96728.84;1036106;28;20511;-60
2021/04/23 00:47:39;;;;;;;18.42;6.00;;;;;;;2.01;100.00;96729.75;1035990;28;20045;-60
2021/04/23 00:48:09;;;;;;;15.20;5.93;;;;;;;2.00;100.00;96725.47;1036088;28;20036;-60
2021/04/23 00:48:43;;;;;;;10.98;5.50;;;;;;;1.98;100.00;96716.88;1040021;28;20021;-62
2021/04/23 00:49:14;;;;;;;12.60;5.63;;;;;;;1.97;100.00;96730.91;1040164;28;20014;-61
2021/04/23 00:49:45;;;;;;;15.95;6.90;;;;;;;1.98;100.00;96726.50;1036050;28;20021;-61
2021/04/23 00:50:27;;;;;;;16.92;6.05;;;;;;;1.88;100.00;96711.44;1032101;28;20014;-61
2021/04/23 00:51:09;;;;;;;14.52;5.60;;;;;;;1.96;100.00;96726.63;1032048;28;20091;-60
2021/04/23 00:51:43;;;;;;;12.63;6.05;;;;;;;1.95;100.00;96726.72;1031987;28;20052;-61
2021/04/23 00:52:14;;;;;;;12.43;5.15;;;;;;;1.92;100.00;96735.63;1044227;28;20024;-61
2021/04/23 00:52:45;;;;;;;14.45;5.63;;;;;;;1.92;100.00;96735.63;1035911;28;20575;-61
2021/04/23 00:53:19;;;;;;;15.43;5.47;;;;;;;1.92;100.00;96730.38;1036068;28;20021;-61
2021/04/23 00:53:51;;;;;;;12.02;5.38;;;;;;;1.94;100.00;96733.75;1031817;28;20503;-62
2021/04/23 00:54:22;;;;;;;14.15;5.97;;;;;;;1.94;100.00;96730.28;1036040;28;20022;-61
2021/04/23 00:54:53;;;;;;;14.20;5.68;;;;;;;1.95;100.00;96735.44;1035989;28;20024;-62
2021/04/23 00:55:25;;;;;;;15.38;5.88;;;;;;;1.96;100.00;96737.09;1040178;28;20539;-61
2021/04/23 00:55:56;;;;;;;12.23;5.85;;;;;;;1.96;100.00;96736.25;1044225;28;20017;-62
2021/04/23 00:56:29;;;;;;;12.07;5.68;;;;;;;1.95;100.00;96732.81;1036047;28;20026;-61
2021/04/23 00:57:00;;;;;;;14.05;5.40;;;;;;;1.94;100.00;96730.28;1035920;28;20030;-60
2021/04/23 00:57:31;;;;;;;11.05;5.57;;;;;;;1.94;100.00;96735.53;1040093;28;20438;-61
2021/04/23 00:58:08;;;;;;;14.05;5.82;;;;;;;1.93;100.00;96729.44;1040106;28;20383;-61
2021/04/23 00:58:39;;;;;;;15.70;6.05;;;;;;;1.93;100.00;96736.47;1040070;28;20033;-62
2021/04/23 00:59:12;;;;;;;10.75;5.50;;;;;;;1.92;100.00;96727.78;1035900;28;20021;-61
2021/04/23 00:59:43;;;;;;;10.45;5.72;;;;;;;1.92;100.00;96733.00;1035996;28;20076;-60
2021/04/23 01:00:15;;;;;;;10.18;4.95;;;;;;;1.92;100.00;96738.25;1040100;28;20060;-61
2021/04/23 01:00:48;;;;;;;13.60;5.80;;;;;;;1.91;100.00;96736.56;1035989;28;20068;-61
2021/04/23 01:01:23;;;;;;;12.32;5.90;;;;;;;1.91;100.00;96736.56;1032020;28;20077;-61
2021/04/23 01:01:59;;;;;;;15.15;6.32;;;;;;;1.85;100.00;96722.09;1032048;28;20025;-62
2021/04/23 01:02:30;;;;;;;16.67;5.78;;;;;;;1.90;100.00;96740.13;1037866;28;20037;-62
2021/04/23 01:03:01;;;;;;;13.07;5.28;;;;;;;1.91;100.00;96738.34;1031873;28;20591;-61
2021/04/23 01:03:32;;;;;;;13.40;5.55;;;;;;;1.89;100.00;96734.03;1035835;28;20022;-60
2021/04/23 01:04:05;;;;;;;11.27;5.32;;;;;;;1.90;100.00;96732.28;1035958;28;20049;-61
2021/04/23 01:04:37;;;;;;;14.32;5.72;;;;;;;1.89;100.00;96738.44;1040096;28;20022;-59
2021/04/23 01:05:10;;;;;;;12.85;5.78;;;;;;;1.89;100.00;96736.66;1040101;28;20097;-61
2021/04/23 01:05:41;;;;;;;15.55;5.72;;;;;;;1.89;100.00;96738.44;1031943;28;20026;-60
2021/04/23 01:06:15;;;;;;;17.27;5.78;;;;;;;1.89;100.00;96738.44;1036069;28;20515;-61
2021/04/23 01:06:47;;;;;;;11.13;5.15;;;;;;;1.89;100.00;96738.44;1036059;28;20021;-61
2021/04/23 01:07:18;;;;;;;18.65;5.95;;;;;;;1.89;100.00;96734.03;1035935;28;20032;-60
2021/04/23 01:07:50;;;;;;;12.25;5.75;;;;;;;1.89;100.00;96747.13;1035817;28;20073;-61
2021/04/23 01:08:29;;;;;;;12.73;6.13;;;;;;;1.90;100.00;96742.75;1031953;28;20061;-61
2021/04/23 01:09:08;;;;;;;13.15;5.10;;;;;;;1.89;100.00;96739.28;1031979;28;20440;-61
2021/04/23 01:09:38;;;;;;;13.13;5.53;;;;;;;1.89;100.00;96746.31;1031996;28;20125;-61
2021/04/23 01:10:10;;;;;;;16.40;5.30;;;;;;;1.89;100.00;96748.91;1035933;28;20423;-61
2021/04/23 01:10:41;;;;;;;12.70;6.07;;;;;;;1.89;100.00;96743.69;1031864;28;20080;-60
2021/04/23 01:11:12;;;;;;;19.55;6.25;;;;;;;1.88;100.00;96744.63;1031903;28;20022;-61
2021/04/23 01:11:44;;;;;;;13.07;5.88;;;;;;;1.87;100.00;96740.34;1036023;28;20188;-61
2021/04/23 01:12:15;;;;;;;12.75;6.30;;;;;;;1.88;100.00;96742.00;1035989;28;20024;-60
2021/04/23 01:12:45;;;;;;;11.95;5.82;;;;;;;1.89;100.00;96741.06;1035965;28;20037;-62
2021/04/23 01:13:16;;;;;;;12.30;5.53;;;;;;;1.88;100.00;96737.63;1040105;28;20483;-61
2021/04/23 01:13:47;;;;;;;14.43;6.43;;;;;;;1.89;100.00;96746.31;1031709;28;20106;-61
2021/04/23 01:14:18;;;;;;;15.85;6.10;;;;;;;1.89;100.00;96735.81;1031947;28;20078;-62
2021/04/23 01:14:49;;;;;;;13.45;6.72;;;;;;;1.89;100.00;96741.91;1028035;28;20035;-60
2021/04/23 01:15:20;;;;;;;12.40;6.10;;;;;;;1.91;100.00;96743.59;1031790;28;20022;-62
2021/04/23 01:15:51;;;;;;;14.05;5.55;;;;;;;1.90;100.00;96740.13;1035874;28;20100;-60
2021/04/23 01:16:23;;;;;;;12.50;5.82;;;;;;;1.89;100.00;96741.91;1040094;28;20422;-60
2021/04/23 01:16:54;;;;;;;11.93;6.47;;;;;;;1.91;100.00;96747.03;1036007;28;20045;-60
2021/04/23 01:17:25;;;;;;;13.27;5.80;;;;;;;1.87;100.00;96732.47;1035983;28;20017;-61
2021/04/23 01:17:56;;;;;;;11.38;5.88;;;;;;;1.92;100.00;96747.91;1031533;28;20085;-60
2021/04/23 01:18:27;;;;;;;13.15;5.47;;;;;;;1.91;100.00;96739.19;1035975;28;20076;-61
2021/04/23 01:18:58;;;;;;;14.50;5.90;;;;;;;1.90;100.00;96748.00;1031896;28;20070;-61
2021/04/23 01:19:28;;;;;;;13.70;5.85;;;;;;;1.91;100.00;96740.97;1031835;28;20029;-61
2021/04/23 01:19:59;;;;;;;13.82;6.68;;;;;;;1.91;100.00;96740.97;1027789;28;20113;-61
2021/04/23 01:20:30;;;;;;;14.05;6.05;;;;;;;1.91;100.00;96746.19;1027902;28;20019;-62
2021/04/23 01:21:03;;;;;;;15.32;6.18;;;;;;;1.91;100.00;96744.41;1032042;28;20395;-61
2021/04/23 01:21:35;;;;;;;16.42;5.95;;;;;;;1.90;100.00;96740.13;1036015;28;20499;-61
2021/04/23 01:22:06;;;;;;;14.43;5.85;;;;;;;1.85;100.00;96735.19;1036041;28;20515;-62
2021/04/23 01:22:36;;;;;;;17.13;6.68;;;;;;;1.87;100.00;96732.47;1040044;28;20030;-61
2021/04/23 01:23:07;;;;;;;13.55;5.65;;;;;;;1.87;100.00;96740.34;1036035;28;20503;-62
2021/04/23 01:23:39;;;;;;;14.05;5.97;;;;;;;1.85;100.00;96745.66;1031689;28;20029;-59
2021/04/23 01:24:11;;;;;;;12.55;5.43;;;;;;;1.78;100.00;96735.72;1039972;28;20479;-61
2021/04/23 01:24:42;;;;;;;13.23;6.28;;;;;;;1.72;100.00;96730.88;1040591;28;20028;-60
2021/04/23 01:25:13;;;;;;;15.32;6.15;;;;;;;1.81;100.00;96740.72;1035992;28;20022;-61
2021/04/23 01:25:44;;;;;;;15.85;6.40;;;;;;;1.82;100.00;96738.00;1028021;28;20509;-60
2021/04/23 01:26:16;;;;;;;12.98;6.07;;;;;;;1.82;100.00;96735.41;1035941;28;20026;-61
2021/04/23 01:26:50;;;;;;;9.90;5.68;;;;;;;1.82;100.00;96743.25;1035927;28;20025;-61
2021/04/23 01:27:21;;;;;;;15.90;7.28;;;;;;;1.83;100.00;96739.69;1035948;28;20026;-61
2021/04/23 01:27:51;;;;;;;13.23;6.35;;;;;;;1.83;100.00;96733.59;1035884;28;20120;-61
2021/04/23 01:28:22;;;;;;;13.55;6.15;;;;;;;1.83;100.00;96739.69;1035906;28;20017;-61
2021/04/23 01:28:54;;;;;;;14.82;6.47;;;;;;;1.83;100.00;96738.84;1027872;28;20467;-61
2021/04/23 01:29:25;;;;;;;11.45;5.88;;;;;;;1.82;100.00;96738.00;1031901;28;20033;-61
2021/04/23 01:29:56;;;;;;;14.55;5.82;;;;;;;1.81;100.00;96732.88;1027838;28;20038;-60
2021/04/23 01:30:27;;;;;;;11.77;5.88;;;;;;;1.81;100.00;96745.97;1031735;28;20061;-60
2021/04/23 01:30:58;;;;;;;14.52;5.97;;;;;;;1.78;100.00;96736.53;1036047;28;20088;-61
2021/04/23 01:31:30;;;;;;;11.95;5.88;;;;;;;1.76;100.00;96743.66;1031904;28;20022;-61
2021/04/23 01:32:01;;;;;;;16.77;6.40;;;;;;;1.79;100.00;96743.44;1031801;28;20101;-60
2021/04/23 01:32:32;;;;;;;13.52;6.22;;;;;;;1.79;100.00;96745.22;1027830;28;20490;-62
2021/04/23 01:33:03;;;;;;;15.95;6.35;;;;;;;1.79;100.00;96742.63;1031853;28;20030;-61
2021/04/23 01:33:34;;;;;;;16.27;6.75;;;;;;;1.76;100.00;96741.06;1027759;28;20061;-59
2021/04/23 01:34:16;;;;;;;14.75;6.68;;;;;;;1.73;100.00;96737.81;1031774;28;20057;-61
2021/04/23 01:34:47;;;;;;;16.73;6.88;;;;;;;1.73;100.00;96749.09;1036115;28;20503;-61
2021/04/23 01:35:21;;;;;;;20.10;6.68;;;;;;;1.74;100.00;96744.69;1031871;28;20416;-60
2021/04/23 01:35:53;;;;;;;13.93;5.80;;;;;;;1.74;100.00;96750.75;1039939;28;20032;-61
2021/04/23 01:36:24;;;;;;;12.98;5.35;;;;;;;1.74;100.00;96755.16;1039931;28;20616;-63
2021/04/23 01:36:55;;;;;;;14.95;5.97;;;;;;;1.73;100.00;96745.66;1035910;28;20014;-61
2021/04/23 01:37:28;;;;;;;14.38;6.38;;;;;;;1.72;100.00;96749.19;1040002;28;20111;-61
2021/04/23 01:37:59;;;;;;;14.95;6.57;;;;;;;1.73;100.00;96748.28;1039913;28;20021;-60
2021/04/23 01:38:30;;;;;;;13.88;6.00;;;;;;;1.72;100.00;96746.59;1031755;28;20370;-61
2021/04/23 01:39:01;;;;;;;19.38;5.88;;;;;;;1.73;100.00;96756.97;1035925;28;20025;-61
2021/04/23 01:39:34;;;;;;;17.90;6.47;;;;;;;1.71;100.00;96764.09;1035876;28;20030;-61
2021/04/23 01:40:06;;;;;;;13.57;6.13;;;;;;;1.68;100.00;96752.00;1032008;28;20038;-61
2021/04/23 01:40:37;;;;;;;13.70;5.55;;;;;;;1.67;100.00;96754.72;1035713;28;20504;-61
2021/04/23 01:41:08;;;;;;;12.60;5.90;;;;;;;1.65;100.00;96752.22;1031823;28;20023;-61
2021/04/23 01:41:40;;;;;;;14.38;6.35;;;;;;;1.64;100.00;96754.97;1027816;28;20018;-60
2021/04/23 01:42:11;;;;;;;15.40;5.72;;;;;;;1.61;100.00;96748.13;1035979;28;20112;-61
2021/04/23 01:42:43;;;;;;;14.90;6.35;;;;;;;1.60;100.00;96759.56;1031591;28;20019;-61
2021/04/23 01:43:14;;;;;;;10.93;5.50;;;;;;;1.59;100.00;96752.63;1035275;28;20036;-61
2021/04/23 01:43:46;;;;;;;15.45;6.72;;;;;;;1.58;100.00;96756.19;1039592;28;20026;-60
2021/04/23 01:44:18;;;;;;;12.35;6.47;;;;;;;1.60;100.00;96753.47;1031868;28;20022;-62
2021/04/23 01:44:49;;;;;;;13.55;5.97;;;;;;;1.60;100.00;96754.31;1031770;28;20026;-60
2021/04/23 01:45:20;;;;;;;13.73;5.80;;;;;;;1.53;100.00;96741.72;1027846;28;20018;-61
2021/04/23 01:45:51;;;;;;;14.02;6.03;;;;;;;1.59;100.00;96752.63;1035906;28;20022;-61
2021/04/23 01:46:22;;;;;;;17.38;6.78;;;;;;;1.59;100.00;96752.63;1031830;28;20022;-61
2021/04/23 01:46:53;;;;;;;10.18;5.60;;;;;;;1.57;100.00;96754.50;1035881;28;20042;-61
2021/04/23 01:47:25;;;;;;;13.93;6.38;;;;;;;1.58;100.00;96756.19;1035922;28;20495;-60
2021/04/23 01:47:57;;;;;;;14.50;5.78;;;;;;;1.56;100.00;96762.47;1035754;28;20022;-61
2021/04/23 01:48:28;;;;;;;16.63;7.15;;;;;;;1.56;100.00;96758.06;1035831;28;20005;-61
2021/04/23 01:49:01;;;;;;;11.18;5.30;;;;;;;1.54;100.00;96765.19;1035776;28;20022;-60
2021/04/23 01:49:32;;;;;;;14.05;6.28;;;;;;;1.54;100.00;96761.72;1031794;28;20129;-61
2021/04/23 01:50:05;;;;;;;13.68;6.32;;;;;;;1.53;100.00;96758.25;1031771;28;20018;-61
2021/04/23 01:50:36;;;;;;;16.08;6.35;;;;;;;1.54;100.00;96759.13;1031883;28;20018;-61
2021/04/23 01:51:09;;;;;;;18.33;6.35;;;;;;;1.53;100.00;96760.88;1031757;28;20049;-60
2021/04/23 01:51:43;;;;;;;13.80;5.93;;;;;;;1.53;100.00;96753.00;1027834;28;20110;-62
2021/04/23 01:52:15;;;;;;;14.20;6.00;;;;;;;1.49;100.00;96756.78;1031701;28;20057;-60
2021/04/23 01:52:47;;;;;;;17.45;6.10;;;;;;;1.49;100.00;96756.78;1035913;28;20117;-62
2021/04/23 01:53:18;;;;;;;15.80;6.45;;;;;;;1.48;100.00;96753.34;1027644;28;20018;-61
2021/04/23 01:53:49;;;;;;;15.57;5.88;;;;;;;1.49;100.00;96757.63;1027662;28;20070;-60
2021/04/23 01:54:21;;;;;;;12.60;5.80;;;;;;;1.48;100.00;96755.94;1027926;28;20027;-61
2021/04/23 01:54:52;;;;;;;14.82;6.13;;;;;;;1.48;100.00;96755.09;1027825;28;20026;-61
2021/04/23 01:55:23;;;;;;;12.48;6.03;;;;;;;1.47;100.00;96754.25;1027668;28;20019;-60
2021/04/23 01:55:54;;;;;;;19.40;5.68;;;;;;;1.42;100.00;96745.03;1035888;28;20022;-60
2021/04/23 01:56:24;;;;;;;16.88;6.10;;;;;;;1.46;100.00;96756.97;1027749;28;20038;-61
2021/04/23 01:56:56;;;;;;;18.27;6.63;;;;;;;1.45;100.00;96756.16;1031757;28;20109;-61
2021/04/23 01:57:27;;;;;;;17.25;6.95;;;;;;;1.44;100.00;96751.84;1035831;28;20516;-60
2021/04/23 01:57:58;;;;;;;11.88;5.65;;;;;;;1.42;100.00;96750.28;1031679;28;20076;-61
2021/04/23 01:58:28;;;;;;;12.43;6.63;;;;;;;1.33;100.00;96732.56;1031717;28;20104;-61
2021/04/23 01:58:59;;;;;;;14.02;6.30;;;;;;;1.41;100.00;96751.19;1031804;28;20546;-61
2021/04/23 01:59:30;;;;;;;15.57;5.72;;;;;;;1.39;100.00;96751.28;1027628;28;20027;-61
2021/04/23 02:00:08;;;;;;;15.90;6.30;;;;;;;1.39;100.00;96747.84;1035763;28;20474;-61
2021/04/23 02:00:41;;;;;;;14.55;7.18;;;;;;;1.37;100.00;96758.41;1035933;28;20018;-60
2021/04/23 02:01:14;;;;;;;12.43;6.22;;;;;;;1.35;100.00;96752.44;1031660;28;20026;-60
2021/04/23 02:01:45;;;;;;;20.23;6.10;;;;;;;1.32;100.00;96752.63;1031753;28;20291;-61
2021/04/23 02:02:17;;;;;;;13.65;5.97;;;;;;;1.34;100.00;96757.78;1027704;28;20396;-62
2021/04/23 02:02:50;;;;;;;13.50;5.43;;;;;;;1.32;100.00;96757.88;1031800;28;20065;-61
2021/04/23 02:03:21;;;;;;;11.80;6.07;;;;;;;1.33;100.00;96754.31;1035725;28;20029;-60
2021/04/23 02:03:53;;;;;;;15.82;5.85;;;;;;;1.34;100.00;96755.16;1031528;28;20018;-61
2021/04/23 02:04:24;;;;;;;14.98;6.18;;;;;;;1.31;100.00;96749.19;1035848;28;20041;-60
2021/04/23 02:04:55;;;;;;;15.85;6.57;;;;;;;1.31;100.00;96750.97;1039927;28;20013;-61
2021/04/23 02:05:26;;;;;;;17.45;5.93;;;;;;;1.31;100.00;96753.59;1035695;28;20025;-60
2021/04/23 02:05:57;;;;;;;14.05;6.18;;;;;;;1.31;100.00;96751.81;1031796;28;20037;-61
2021/04/23 02:06:28;;;;;;;14.77;6.15;;;;;;;1.30;100.00;96754.50;1035824;28;20028;-61
2021/04/23 02:06:59;;;;;;;13.13;6.50;;;;;;;1.28;100.00;96753.78;1039880;28;20021;-59
2021/04/23 02:07:31;;;;;;;14.77;6.57;;;;;;;1.27;100.00;96752.09;1027624;28;20058;-61
2021/04/23 02:08:02;;;;;;;17.60;6.68;;;;;;;1.27;100.00;96752.09;1035662;28;20014;-61
2021/04/23 02:08:34;;;;;;;17.15;6.40;;;;;;;1.27;100.00;96757.31;1035785;28;20017;-61
2021/04/23 02:09:06;;;;;;;12.77;5.93;;;;;;;1.26;100.00;96753.88;1035800;28;20025;-61
2021/04/23 02:09:36;;;;;;;14.90;6.28;;;;;;;1.25;100.00;96752.19;1039841;28;20100;-61
2021/04/23 02:10:10;;;;;;;17.38;6.82;;;;;;;1.24;100.00;96752.31;1035729;28;20022;-59
2021/04/23 02:10:44;;;;;;;14.73;6.05;;;;;;;1.17;100.00;96736.16;1031767;28;20021;-61
2021/04/23 02:11:16;;;;;;;9.73;5.38;;;;;;;1.20;100.00;96756.91;1035761;28;20021;-61
2021/04/23 02:11:48;;;;;;;13.32;5.95;;;;;;;1.21;100.00;96752.50;1027606;28;20023;-61
2021/04/23 02:12:19;;;;;;;13.27;5.63;;;;;;;1.15;100.00;96745.03;1031685;28;20473;-61
2021/04/23 02:12:50;;;;;;;17.48;6.38;;;;;;;1.20;100.00;96750.81;1031722;28;20042;-62
2021/04/23 02:13:24;;;;;;;14.10;5.82;;;;;;;1.19;100.00;96755.22;1031701;28;20098;-61
2021/04/23 02:13:56;;;;;;;12.50;6.28;;;;;;;1.18;100.00;96750.91;1031540;28;20073;-61
2021/04/23 02:14:27;;;;;;;14.07;6.22;;;;;;;1.17;100.00;96753.59;1031764;28;20041;-61
2021/04/23 02:14:58;;;;;;;16.77;6.32;;;;;;;1.15;100.00;96745.88;1035787;28;20065;-61
2021/04/23 02:15:29;;;;;;;13.35;6.40;;;;;;;1.16;100.00;96749.34;1031642;28;20022;-61
2021/04/23 02:16:00;;;;;;;13.80;6.22;;;;;;;1.08;100.00;96745.44;1027556;28;20098;-61
2021/04/23 02:16:31;;;;;;;14.35;5.60;;;;;;;1.05;100.00;96748.22;1031738;28;20018;-60
2021/04/23 02:17:04;;;;;;;13.55;6.03;;;;;;;1.10;100.00;96755.81;1031746;28;20049;-66
2021/04/23 02:17:35;;;;;;;12.60;5.65;;;;;;;1.10;100.00;96748.78;1027716;28;20027;-61
2021/04/23 02:18:06;;;;;;;15.73;6.15;;;;;;;1.09;100.00;96754.09;1034933;28;20068;-61
2021/04/23 02:18:37;;;;;;;15.45;6.32;;;;;;;1.07;100.00;96745.53;1044023;28;20020;-62
2021/04/23 02:19:08;;;;;;;17.83;5.82;;;;;;;1.09;100.00;96748.88;1031661;28;20038;-61
2021/04/23 02:19:39;;;;;;;13.10;5.97;;;;;;;1.09;100.00;96747.09;1035774;28;20057;-61
2021/04/23 02:20:14;;;;;;;19.02;7.00;;;;;;;1.07;100.00;96751.59;1039733;28;20052;-61
2021/04/23 02:20:46;;;;;;;14.70;5.50;;;;;;;1.05;100.00;96747.41;1027719;28;20027;-61
2021/04/23 02:21:17;;;;;;;14.07;5.88;;;;;;;1.05;100.00;96745.63;1035856;28;20018;-61
2021/04/23 02:21:48;;;;;;;14.48;6.05;;;;;;;1.06;100.00;96744.69;1039826;28;20028;-61
2021/04/23 02:22:19;;;;;;;15.15;6.93;;;;;;;1.07;100.00;96753.38;1035666;28;20499;-61
2021/04/23 02:22:49;;;;;;;12.73;5.93;;;;;;;1.06;100.00;96756.91;1039789;28;20104;-61
2021/04/23 02:23:20;;;;;;;13.80;6.10;;;;;;;1.05;100.00;96756.09;1035763;28;20094;-61
2021/04/23 02:23:51;;;;;;;11.80;5.80;;;;;;;1.06;100.00;96751.69;1039585;28;20519;-60
2021/04/23 02:24:22;;;;;;;13.43;6.40;;;;;;;1.05;100.00;96755.25;1031572;28;20484;-61
2021/04/23 02:24:53;;;;;;;13.60;6.60;;;;;;;1.04;100.00;96751.78;1031698;28;20134;-61
2021/04/23 02:25:24;;;;;;;12.35;6.20;;;;;;;0.96;100.00;96748.81;1035785;28;20041;-61
2021/04/23 02:25:55;;;;;;;14.45;6.22;;;;;;;1.02;100.00;96758.06;1035743;28;20415;-61
2021/04/23 02:26:26;;;;;;;14.73;6.18;;;;;;;1.02;100.00;96752.81;1035626;28;20510;-61
2021/04/23 02:26:57;;;;;;;14.38;6.57;;;;;;;1.01;100.00;96751.13;1031704;28;20022;-60
2021/04/23 02:27:28;;;;;;;12.73;5.88;;;;;;;0.98;100.00;96748.72;1039777;28;20022;-61
2021/04/23 02:27:58;;;;;;;12.45;6.20;;;;;;;0.97;100.00;96747.03;1035737;28;20073;-61
2021/04/23 02:28:29;;;;;;;16.90;7.15;;;;;;;0.91;100.00;96750.88;1031415;28;20607;-61
2021/04/23 02:29:00;;;;;;;16.33;6.20;;;;;;;0.90;100.00;96750.03;1039882;28;20116;-60